Aviation Digital Data Service (ADDS)

Output produced by METARs form (0246 UTC 15 August 2020)
found at http://www.aviationweather.gov/metar/data/
 
Forecast for: RJSI (HANAMAKI AIRPORT, JP)
Text: TAF RJSI 142305Z 1500/1606 27008KT 9999 FEW010 BKN020 BKN030
Forecast period: 0000 UTC 15 August 2020 to 0600 UTC 16 August 2020
Forecast type: FROM: standard forecast or significant change
Winds: from the W (270 degrees) at 9 MPH (8 knots; 4.1 m/s)
Visibility: 6 or more miles (10+ km)
Ceiling: 2000 feet AGL
Clouds: few clouds at 1000 feet AGL
broken clouds at 2000 feet AGL
broken clouds at 3000 feet AGL
Weather: no significant weather forecast for this period
Text: TEMPO 1501/1504 4000 SHRA BR
Forecast period: 0100 to 0400 UTC 15 August 2020
Forecast type: TEMPORARY: The following changes expected for less than half the time period
Visibility: 2.49 miles (4.01 km)
Ceiling: unknown
Clouds: missing
Weather: SHRA BR  (rain showers, mist)